sensor_id;sensor_type;location;lat;lon;timestamp;P1;durP1;ratioP1;P2;durP2;ratioP2
53751;SDS011;41095;53.090;6.692;2023-08-06T00:00:17;13.63;;;11.18;;
53751;SDS011;41095;53.090;6.692;2023-08-06T00:02:43;14.40;;;11.05;;
53751;SDS011;41095;53.090;6.692;2023-08-06T00:05:08;12.70;;;11.07;;
53751;SDS011;41095;53.090;6.692;2023-08-06T00:07:34;13.63;;;10.00;;
53751;SDS011;41095;53.090;6.692;2023-08-06T00:10:00;13.18;;;9.15;;
53751;SDS011;41095;53.090;6.692;2023-08-06T00:12:25;10.60;;;8.73;;
53751;SDS011;41095;53.090;6.692;2023-08-06T00:14:51;12.10;;;8.15;;
53751;SDS011;41095;53.090;6.692;2023-08-06T00:17:18;9.38;;;8.40;;
53751;SDS011;41095;53.090;6.692;2023-08-06T00:19:44;12.35;;;7.78;;
53751;SDS011;41095;53.090;6.692;2023-08-06T00:22:10;10.23;;;8.27;;
53751;SDS011;41095;53.090;6.692;2023-08-06T00:24:35;9.10;;;8.20;;
53751;SDS011;41095;53.090;6.692;2023-08-06T00:27:01;10.07;;;7.32;;
53751;SDS011;41095;53.090;6.692;2023-08-06T00:29:27;11.48;;;8.93;;
53751;SDS011;41095;53.090;6.692;2023-08-06T00:31:53;9.77;;;8.63;;
53751;SDS011;41095;53.090;6.692;2023-08-06T00:34:19;8.73;;;7.82;;
53751;SDS011;41095;53.090;6.692;2023-08-06T00:36:45;9.02;;;8.15;;
53751;SDS011;41095;53.090;6.692;2023-08-06T00:39:11;10.75;;;9.23;;
53751;SDS011;41095;53.090;6.692;2023-08-06T00:41:36;10.57;;;8.38;;
53751;SDS011;41095;53.090;6.692;2023-08-06T00:44:02;9.05;;;8.00;;
53751;SDS011;41095;53.090;6.692;2023-08-06T00:46:28;11.25;;;7.97;;
53751;SDS011;41095;53.090;6.692;2023-08-06T00:48:55;11.15;;;9.40;;
53751;SDS011;41095;53.090;6.692;2023-08-06T00:51:21;10.43;;;8.57;;
53751;SDS011;41095;53.090;6.692;2023-08-06T00:53:48;11.80;;;10.27;;
53751;SDS011;41095;53.090;6.692;2023-08-06T00:56:15;11.00;;;9.98;;
53751;SDS011;41095;53.090;6.692;2023-08-06T00:58:41;12.27;;;9.65;;
53751;SDS011;41095;53.090;6.692;2023-08-06T01:01:07;10.77;;;9.63;;
53751;SDS011;41095;53.090;6.692;2023-08-06T01:03:33;11.57;;;9.60;;
53751;SDS011;41095;53.090;6.692;2023-08-06T01:05:59;13.35;;;10.93;;
53751;SDS011;41095;53.090;6.692;2023-08-06T01:08:44;14.95;;;11.27;;
53751;SDS011;41095;53.090;6.692;2023-08-06T01:11:33;11.85;;;10.60;;
53751;SDS011;41095;53.090;6.692;2023-08-06T01:14:30;15.07;;;11.30;;
53751;SDS011;41095;53.090;6.692;2023-08-06T01:17:06;13.55;;;11.65;;
53751;SDS011;41095;53.090;6.692;2023-08-06T01:19:33;15.18;;;12.00;;
53751;SDS011;41095;53.090;6.692;2023-08-06T01:21:58;13.52;;;12.13;;
53751;SDS011;41095;53.090;6.692;2023-08-06T01:24:24;11.88;;;10.63;;
53751;SDS011;41095;53.090;6.692;2023-08-06T01:26:52;16.30;;;12.00;;
53751;SDS011;41095;53.090;6.692;2023-08-06T01:29:44;14.35;;;12.45;;
53751;SDS011;41095;53.090;6.692;2023-08-06T01:32:13;14.65;;;12.30;;
53751;SDS011;41095;53.090;6.692;2023-08-06T01:34:41;20.80;;;14.80;;
53751;SDS011;41095;53.090;6.692;2023-08-06T01:37:10;14.98;;;13.30;;
53751;SDS011;41095;53.090;6.692;2023-08-06T01:39:36;15.05;;;13.10;;
53751;SDS011;41095;53.090;6.692;2023-08-06T01:42:02;15.05;;;12.98;;
53751;SDS011;41095;53.090;6.692;2023-08-06T01:44:28;14.55;;;13.13;;
53751;SDS011;41095;53.090;6.692;2023-08-06T01:46:54;15.25;;;12.00;;
53751;SDS011;41095;53.090;6.692;2023-08-06T01:49:19;15.05;;;12.10;;
53751;SDS011;41095;53.090;6.692;2023-08-06T01:51:45;15.60;;;12.45;;
53751;SDS011;41095;53.090;6.692;2023-08-06T01:54:11;15.57;;;12.63;;
53751;SDS011;41095;53.090;6.692;2023-08-06T01:56:36;15.23;;;11.93;;
53751;SDS011;41095;53.090;6.692;2023-08-06T01:59:02;13.18;;;11.55;;
53751;SDS011;41095;53.090;6.692;2023-08-06T02:01:28;13.45;;;11.85;;
53751;SDS011;41095;53.090;6.692;2023-08-06T02:03:53;12.98;;;11.63;;
53751;SDS011;41095;53.090;6.692;2023-08-06T02:06:19;14.55;;;12.35;;
53751;SDS011;41095;53.090;6.692;2023-08-06T02:08:45;13.73;;;11.30;;
53751;SDS011;41095;53.090;6.692;2023-08-06T02:11:11;17.48;;;12.80;;
53751;SDS011;41095;53.090;6.692;2023-08-06T02:13:36;15.63;;;12.63;;
53751;SDS011;41095;53.090;6.692;2023-08-06T02:16:02;14.20;;;12.70;;
53751;SDS011;41095;53.090;6.692;2023-08-06T02:18:28;13.82;;;12.27;;
53751;SDS011;41095;53.090;6.692;2023-08-06T02:21:00;13.20;;;10.82;;
53751;SDS011;41095;53.090;6.692;2023-08-06T02:23:26;15.27;;;13.05;;
53751;SDS011;41095;53.090;6.692;2023-08-06T02:26:01;15.23;;;12.38;;
53751;SDS011;41095;53.090;6.692;2023-08-06T02:28:28;13.73;;;12.27;;
53751;SDS011;41095;53.090;6.692;2023-08-06T02:30:54;14.52;;;12.95;;
53751;SDS011;41095;53.090;6.692;2023-08-06T02:33:20;14.55;;;12.38;;
53751;SDS011;41095;53.090;6.692;2023-08-06T02:35:46;13.05;;;11.48;;
53751;SDS011;41095;53.090;6.692;2023-08-06T02:38:12;13.82;;;12.30;;
53751;SDS011;41095;53.090;6.692;2023-08-06T02:40:44;17.42;;;13.00;;
53751;SDS011;41095;53.090;6.692;2023-08-06T02:43:10;12.93;;;11.70;;
53751;SDS011;41095;53.090;6.692;2023-08-06T02:45:36;16.20;;;12.00;;
53751;SDS011;41095;53.090;6.692;2023-08-06T02:48:02;15.27;;;11.60;;
53751;SDS011;41095;53.090;6.692;2023-08-06T02:50:28;12.05;;;10.18;;
53751;SDS011;41095;53.090;6.692;2023-08-06T02:52:53;11.82;;;9.85;;
53751;SDS011;41095;53.090;6.692;2023-08-06T02:55:19;13.40;;;11.40;;
53751;SDS011;41095;53.090;6.692;2023-08-06T02:57:45;12.13;;;10.85;;
53751;SDS011;41095;53.090;6.692;2023-08-06T03:00:11;11.55;;;9.70;;
53751;SDS011;41095;53.090;6.692;2023-08-06T03:02:36;12.63;;;9.88;;
53751;SDS011;41095;53.090;6.692;2023-08-06T03:05:02;15.50;;;10.73;;
53751;SDS011;41095;53.090;6.692;2023-08-06T03:07:28;11.50;;;10.20;;
53751;SDS011;41095;53.090;6.692;2023-08-06T03:09:54;14.70;;;10.20;;
53751;SDS011;41095;53.090;6.692;2023-08-06T03:12:20;11.02;;;9.85;;
53751;SDS011;41095;53.090;6.692;2023-08-06T03:14:45;11.57;;;9.35;;
53751;SDS011;41095;53.090;6.692;2023-08-06T03:17:11;11.23;;;10.07;;
53751;SDS011;41095;53.090;6.692;2023-08-06T03:19:37;13.00;;;9.88;;
53751;SDS011;41095;53.090;6.692;2023-08-06T03:22:02;12.80;;;9.55;;
53751;SDS011;41095;53.090;6.692;2023-08-06T03:24:28;12.23;;;10.68;;
53751;SDS011;41095;53.090;6.692;2023-08-06T03:26:54;10.77;;;9.68;;
53751;SDS011;41095;53.090;6.692;2023-08-06T03:29:20;11.98;;;10.77;;
53751;SDS011;41095;53.090;6.692;2023-08-06T03:31:46;12.90;;;11.23;;
53751;SDS011;41095;53.090;6.692;2023-08-06T03:34:12;12.25;;;10.63;;
53751;SDS011;41095;53.090;6.692;2023-08-06T03:36:38;9.80;;;8.80;;
53751;SDS011;41095;53.090;6.692;2023-08-06T03:39:03;11.45;;;9.70;;
53751;SDS011;41095;53.090;6.692;2023-08-06T03:41:29;10.98;;;9.63;;
53751;SDS011;41095;53.090;6.692;2023-08-06T03:43:55;14.35;;;9.68;;
53751;SDS011;41095;53.090;6.692;2023-08-06T03:46:21;10.52;;;9.43;;
53751;SDS011;41095;53.090;6.692;2023-08-06T03:48:46;12.73;;;10.98;;
53751;SDS011;41095;53.090;6.692;2023-08-06T03:51:12;12.75;;;10.82;;
53751;SDS011;41095;53.090;6.692;2023-08-06T03:53:38;14.27;;;10.52;;
53751;SDS011;41095;53.090;6.692;2023-08-06T03:56:03;11.75;;;10.40;;
53751;SDS011;41095;53.090;6.692;2023-08-06T03:58:29;12.88;;;10.55;;
53751;SDS011;41095;53.090;6.692;2023-08-06T04:00:58;10.25;;;8.60;;
53751;SDS011;41095;53.090;6.692;2023-08-06T04:03:28;9.25;;;8.25;;
53751;SDS011;41095;53.090;6.692;2023-08-06T04:05:54;10.13;;;9.00;;
53751;SDS011;41095;53.090;6.692;2023-08-06T04:08:20;14.63;;;11.45;;
53751;SDS011;41095;53.090;6.692;2023-08-06T04:10:49;10.35;;;9.25;;
53751;SDS011;41095;53.090;6.692;2023-08-06T04:13:16;12.10;;;10.75;;
53751;SDS011;41095;53.090;6.692;2023-08-06T04:15:41;12.20;;;10.98;;
53751;SDS011;41095;53.090;6.692;2023-08-06T04:18:07;14.18;;;11.32;;
53751;SDS011;41095;53.090;6.692;2023-08-06T04:20:33;11.52;;;10.32;;
53751;SDS011;41095;53.090;6.692;2023-08-06T04:22:58;13.30;;;10.95;;
53751;SDS011;41095;53.090;6.692;2023-08-06T04:25:24;15.02;;;11.82;;
53751;SDS011;41095;53.090;6.692;2023-08-06T04:27:50;11.45;;;9.65;;
53751;SDS011;41095;53.090;6.692;2023-08-06T04:30:16;13.65;;;10.10;;
53751;SDS011;41095;53.090;6.692;2023-08-06T04:32:41;12.85;;;10.63;;
53751;SDS011;41095;53.090;6.692;2023-08-06T04:35:07;11.88;;;10.70;;
53751;SDS011;41095;53.090;6.692;2023-08-06T04:37:33;12.90;;;10.90;;
53751;SDS011;41095;53.090;6.692;2023-08-06T04:39:58;12.10;;;10.43;;
53751;SDS011;41095;53.090;6.692;2023-08-06T04:42:24;12.48;;;11.13;;
53751;SDS011;41095;53.090;6.692;2023-08-06T04:44:50;10.73;;;9.52;;
53751;SDS011;41095;53.090;6.692;2023-08-06T04:47:16;11.07;;;9.25;;
53751;SDS011;41095;53.090;6.692;2023-08-06T04:49:41;12.55;;;10.35;;
53751;SDS011;41095;53.090;6.692;2023-08-06T04:52:08;10.18;;;9.07;;
53751;SDS011;41095;53.090;6.692;2023-08-06T04:54:33;13.88;;;10.52;;
53751;SDS011;41095;53.090;6.692;2023-08-06T04:56:59;13.30;;;11.65;;
53751;SDS011;41095;53.090;6.692;2023-08-06T04:59:24;13.70;;;10.57;;
53751;SDS011;41095;53.090;6.692;2023-08-06T05:01:50;13.88;;;12.25;;
53751;SDS011;41095;53.090;6.692;2023-08-06T05:04:16;11.65;;;10.43;;
53751;SDS011;41095;53.090;6.692;2023-08-06T05:06:41;12.32;;;10.70;;
53751;SDS011;41095;53.090;6.692;2023-08-06T05:09:07;10.90;;;9.05;;
53751;SDS011;41095;53.090;6.692;2023-08-06T05:11:33;15.48;;;10.65;;
53751;SDS011;41095;53.090;6.692;2023-08-06T05:13:58;12.57;;;10.15;;
53751;SDS011;41095;53.090;6.692;2023-08-06T05:16:24;14.55;;;11.85;;
53751;SDS011;41095;53.090;6.692;2023-08-06T05:18:50;12.55;;;10.90;;
53751;SDS011;41095;53.090;6.692;2023-08-06T05:21:15;12.05;;;10.57;;
53751;SDS011;41095;53.090;6.692;2023-08-06T05:23:42;12.38;;;11.13;;
53751;SDS011;41095;53.090;6.692;2023-08-06T05:26:08;13.30;;;11.77;;
53751;SDS011;41095;53.090;6.692;2023-08-06T05:28:34;12.80;;;10.38;;
53751;SDS011;41095;53.090;6.692;2023-08-06T05:31:03;14.27;;;10.80;;
53751;SDS011;41095;53.090;6.692;2023-08-06T05:33:29;13.15;;;11.35;;
53751;SDS011;41095;53.090;6.692;2023-08-06T05:35:55;13.45;;;10.77;;
53751;SDS011;41095;53.090;6.692;2023-08-06T05:38:21;11.82;;;9.45;;
53751;SDS011;41095;53.090;6.692;2023-08-06T05:40:46;12.38;;;10.38;;
53751;SDS011;41095;53.090;6.692;2023-08-06T05:43:13;14.02;;;11.05;;
53751;SDS011;41095;53.090;6.692;2023-08-06T05:45:38;12.90;;;10.85;;
53751;SDS011;41095;53.090;6.692;2023-08-06T05:48:04;11.57;;;10.38;;
53751;SDS011;41095;53.090;6.692;2023-08-06T05:50:30;15.45;;;10.65;;
53751;SDS011;41095;53.090;6.692;2023-08-06T05:52:55;11.02;;;9.80;;
53751;SDS011;41095;53.090;6.692;2023-08-06T05:55:21;12.73;;;9.80;;
53751;SDS011;41095;53.090;6.692;2023-08-06T05:57:47;13.20;;;10.90;;
53751;SDS011;41095;53.090;6.692;2023-08-06T06:00:13;11.13;;;9.45;;
53751;SDS011;41095;53.090;6.692;2023-08-06T06:02:38;11.05;;;8.85;;
53751;SDS011;41095;53.090;6.692;2023-08-06T06:05:04;10.55;;;9.35;;
53751;SDS011;41095;53.090;6.692;2023-08-06T06:07:30;10.07;;;9.07;;
53751;SDS011;41095;53.090;6.692;2023-08-06T06:09:56;11.85;;;9.32;;
53751;SDS011;41095;53.090;6.692;2023-08-06T06:12:21;11.82;;;9.20;;
53751;SDS011;41095;53.090;6.692;2023-08-06T06:14:47;11.52;;;10.32;;
53751;SDS011;41095;53.090;6.692;2023-08-06T06:17:13;17.65;;;9.95;;
53751;SDS011;41095;53.090;6.692;2023-08-06T06:19:39;15.10;;;9.88;;
53751;SDS011;41095;53.090;6.692;2023-08-06T06:22:04;11.02;;;9.80;;
53751;SDS011;41095;53.090;6.692;2023-08-06T06:24:30;10.52;;;8.88;;
53751;SDS011;41095;53.090;6.692;2023-08-06T06:26:56;11.82;;;10.48;;
53751;SDS011;41095;53.090;6.692;2023-08-06T06:29:22;13.07;;;10.23;;
53751;SDS011;41095;53.090;6.692;2023-08-06T06:31:47;11.25;;;9.52;;
53751;SDS011;41095;53.090;6.692;2023-08-06T06:34:13;11.40;;;9.52;;
53751;SDS011;41095;53.090;6.692;2023-08-06T06:36:39;11.57;;;9.60;;
53751;SDS011;41095;53.090;6.692;2023-08-06T06:39:04;11.57;;;8.98;;
53751;SDS011;41095;53.090;6.692;2023-08-06T06:41:30;10.25;;;8.75;;
53751;SDS011;41095;53.090;6.692;2023-08-06T06:43:58;12.13;;;9.63;;
53751;SDS011;41095;53.090;6.692;2023-08-06T06:46:23;11.07;;;9.68;;
53751;SDS011;41095;53.090;6.692;2023-08-06T06:48:49;10.05;;;9.05;;
53751;SDS011;41095;53.090;6.692;2023-08-06T06:51:15;10.07;;;9.07;;
53751;SDS011;41095;53.090;6.692;2023-08-06T06:53:41;11.77;;;8.95;;
53751;SDS011;41095;53.090;6.692;2023-08-06T06:56:06;10.77;;;9.68;;
53751;SDS011;41095;53.090;6.692;2023-08-06T06:58:32;9.85;;;8.68;;
53751;SDS011;41095;53.090;6.692;2023-08-06T07:01:01;10.60;;;8.88;;
53751;SDS011;41095;53.090;6.692;2023-08-06T07:03:27;10.60;;;9.52;;
53751;SDS011;41095;53.090;6.692;2023-08-06T07:05:56;12.90;;;8.85;;
53751;SDS011;41095;53.090;6.692;2023-08-06T07:08:23;12.60;;;9.05;;
53751;SDS011;41095;53.090;6.692;2023-08-06T07:10:48;12.18;;;8.75;;
53751;SDS011;41095;53.090;6.692;2023-08-06T07:13:14;11.00;;;8.52;;
53751;SDS011;41095;53.090;6.692;2023-08-06T07:15:41;10.63;;;8.57;;
53751;SDS011;41095;53.090;6.692;2023-08-06T07:18:07;12.18;;;9.35;;
53751;SDS011;41095;53.090;6.692;2023-08-06T07:20:33;11.32;;;8.70;;
53751;SDS011;41095;53.090;6.692;2023-08-06T07:22:59;10.65;;;8.75;;
53751;SDS011;41095;53.090;6.692;2023-08-06T07:25:25;13.13;;;9.15;;
53751;SDS011;41095;53.090;6.692;2023-08-06T07:27:51;9.43;;;8.40;;
53751;SDS011;41095;53.090;6.692;2023-08-06T07:30:17;10.73;;;8.25;;
53751;SDS011;41095;53.090;6.692;2023-08-06T07:32:42;9.43;;;7.95;;
53751;SDS011;41095;53.090;6.692;2023-08-06T07:35:08;9.88;;;8.88;;
53751;SDS011;41095;53.090;6.692;2023-08-06T07:37:38;8.45;;;7.65;;
53751;SDS011;41095;53.090;6.692;2023-08-06T07:40:04;10.93;;;7.78;;
53751;SDS011;41095;53.090;6.692;2023-08-06T07:42:30;7.75;;;7.05;;
53751;SDS011;41095;53.090;6.692;2023-08-06T07:44:57;8.52;;;7.32;;
53751;SDS011;41095;53.090;6.692;2023-08-06T07:47:23;9.02;;;7.78;;
53751;SDS011;41095;53.090;6.692;2023-08-06T07:49:49;8.55;;;7.43;;
53751;SDS011;41095;53.090;6.692;2023-08-06T07:52:15;8.20;;;7.45;;
53751;SDS011;41095;53.090;6.692;2023-08-06T07:54:41;8.55;;;7.25;;
53751;SDS011;41095;53.090;6.692;2023-08-06T07:57:06;7.90;;;6.85;;
53751;SDS011;41095;53.090;6.692;2023-08-06T07:59:32;9.25;;;7.13;;
53751;SDS011;41095;53.090;6.692;2023-08-06T08:01:58;6.80;;;6.10;;
53751;SDS011;41095;53.090;6.692;2023-08-06T08:04:24;7.30;;;6.55;;
53751;SDS011;41095;53.090;6.692;2023-08-06T08:06:50;7.32;;;6.40;;
53751;SDS011;41095;53.090;6.692;2023-08-06T08:09:15;7.90;;;7.20;;
53751;SDS011;41095;53.090;6.692;2023-08-06T08:11:41;8.43;;;6.63;;
53751;SDS011;41095;53.090;6.692;2023-08-06T08:14:07;8.40;;;6.68;;
53751;SDS011;41095;53.090;6.692;2023-08-06T08:16:33;7.55;;;6.18;;
53751;SDS011;41095;53.090;6.692;2023-08-06T08:18:58;6.43;;;5.43;;
53751;SDS011;41095;53.090;6.692;2023-08-06T08:21:24;7.55;;;6.85;;
53751;SDS011;41095;53.090;6.692;2023-08-06T08:23:50;6.93;;;5.60;;
53751;SDS011;41095;53.090;6.692;2023-08-06T08:26:16;7.30;;;6.25;;
53751;SDS011;41095;53.090;6.692;2023-08-06T08:28:42;6.75;;;6.10;;
53751;SDS011;41095;53.090;6.692;2023-08-06T08:31:08;6.53;;;5.82;;
53751;SDS011;41095;53.090;6.692;2023-08-06T08:33:34;6.80;;;5.53;;
53751;SDS011;41095;53.090;6.692;2023-08-06T08:36:00;6.82;;;6.03;;
53751;SDS011;41095;53.090;6.692;2023-08-06T08:38:26;7.25;;;5.63;;
53751;SDS011;41095;53.090;6.692;2023-08-06T08:40:53;6.97;;;6.28;;
53751;SDS011;41095;53.090;6.692;2023-08-06T08:43:22;6.40;;;5.78;;
53751;SDS011;41095;53.090;6.692;2023-08-06T08:45:52;5.13;;;4.65;;
53751;SDS011;41095;53.090;6.692;2023-08-06T08:48:24;6.72;;;5.35;;
53751;SDS011;41095;53.090;6.692;2023-08-06T08:50:50;7.13;;;5.43;;
53751;SDS011;41095;53.090;6.692;2023-08-06T08:53:17;7.88;;;5.72;;
53751;SDS011;41095;53.090;6.692;2023-08-06T08:55:43;5.75;;;5.20;;
53751;SDS011;41095;53.090;6.692;2023-08-06T08:58:12;5.35;;;4.88;;
53751;SDS011;41095;53.090;6.692;2023-08-06T09:00:39;5.90;;;4.90;;
53751;SDS011;41095;53.090;6.692;2023-08-06T09:03:06;4.90;;;4.40;;
53751;SDS011;41095;53.090;6.692;2023-08-06T09:05:33;5.20;;;4.10;;
53751;SDS011;41095;53.090;6.692;2023-08-06T09:08:03;5.60;;;4.30;;
53751;SDS011;41095;53.090;6.692;2023-08-06T09:10:29;8.10;;;4.32;;
53751;SDS011;41095;53.090;6.692;2023-08-06T09:12:56;4.18;;;3.83;;
53751;SDS011;41095;53.090;6.692;2023-08-06T09:15:26;3.40;;;2.92;;
53751;SDS011;41095;53.090;6.692;2023-08-06T09:17:53;3.08;;;2.65;;
53751;SDS011;41095;53.090;6.692;2023-08-06T09:20:19;3.13;;;2.88;;
53751;SDS011;41095;53.090;6.692;2023-08-06T09:22:46;2.85;;;2.60;;
53751;SDS011;41095;53.090;6.692;2023-08-06T09:25:23;2.47;;;2.28;;
53751;SDS011;41095;53.090;6.692;2023-08-06T09:27:50;2.50;;;2.28;;
53751;SDS011;41095;53.090;6.692;2023-08-06T09:30:29;2.45;;;2.25;;
53751;SDS011;41095;53.090;6.692;2023-08-06T09:32:59;3.58;;;2.53;;
53751;SDS011;41095;53.090;6.692;2023-08-06T09:35:25;2.90;;;2.08;;
53751;SDS011;41095;53.090;6.692;2023-08-06T09:37:54;2.78;;;2.17;;
53751;SDS011;41095;53.090;6.692;2023-08-06T09:40:23;1.83;;;1.73;;
53751;SDS011;41095;53.090;6.692;2023-08-06T09:42:53;3.55;;;2.20;;
53751;SDS011;41095;53.090;6.692;2023-08-06T09:45:19;2.33;;;1.95;;
53751;SDS011;41095;53.090;6.692;2023-08-06T09:47:47;3.20;;;1.75;;
53751;SDS011;41095;53.090;6.692;2023-08-06T09:50:19;2.60;;;2.15;;
53751;SDS011;41095;53.090;6.692;2023-08-06T09:52:46;2.80;;;1.77;;
53751;SDS011;41095;53.090;6.692;2023-08-06T09:55:13;2.80;;;1.92;;
53751;SDS011;41095;53.090;6.692;2023-08-06T09:57:40;2.00;;;1.90;;
53751;SDS011;41095;53.090;6.692;2023-08-06T10:00:07;3.13;;;2.10;;
53751;SDS011;41095;53.090;6.692;2023-08-06T10:02:40;3.45;;;2.40;;
53751;SDS011;41095;53.090;6.692;2023-08-06T10:05:07;1.85;;;1.65;;
53751;SDS011;41095;53.090;6.692;2023-08-06T10:07:33;2.22;;;2.00;;
53751;SDS011;41095;53.090;6.692;2023-08-06T10:10:00;2.85;;;2.28;;
53751;SDS011;41095;53.090;6.692;2023-08-06T10:12:27;2.85;;;1.70;;
53751;SDS011;41095;53.090;6.692;2023-08-06T10:14:57;2.08;;;1.88;;
53751;SDS011;41095;53.090;6.692;2023-08-06T10:17:26;2.03;;;1.90;;
53751;SDS011;41095;53.090;6.692;2023-08-06T10:19:52;3.05;;;1.90;;
53751;SDS011;41095;53.090;6.692;2023-08-06T10:22:20;3.22;;;1.80;;
53751;SDS011;41095;53.090;6.692;2023-08-06T10:24:59;1.65;;;1.55;;
53751;SDS011;41095;53.090;6.692;2023-08-06T10:27:35;2.10;;;1.77;;
53751;SDS011;41095;53.090;6.692;2023-08-06T10:32:56;5.07;;;1.75;;
53751;SDS011;41095;53.090;6.692;2023-08-06T10:38:19;2.20;;;1.60;;
53751;SDS011;41095;53.090;6.692;2023-08-06T10:43:26;3.72;;;2.83;;
53751;SDS011;41095;53.090;6.692;2023-08-06T10:45:52;3.15;;;1.70;;
53751;SDS011;41095;53.090;6.692;2023-08-06T10:48:31;1.70;;;1.60;;
53751;SDS011;41095;53.090;6.692;2023-08-06T10:50:59;1.83;;;1.60;;
53751;SDS011;41095;53.090;6.692;2023-08-06T10:53:26;4.55;;;1.65;;
53751;SDS011;41095;53.090;6.692;2023-08-06T10:55:52;4.15;;;1.58;;
53751;SDS011;41095;53.090;6.692;2023-08-06T10:58:18;2.92;;;1.60;;
53751;SDS011;41095;53.090;6.692;2023-08-06T11:00:43;2.60;;;1.90;;
53751;SDS011;41095;53.090;6.692;2023-08-06T11:03:10;1.90;;;1.80;;
53751;SDS011;41095;53.090;6.692;2023-08-06T11:05:36;2.53;;;1.63;;
53751;SDS011;41095;53.090;6.692;2023-08-06T11:08:02;4.45;;;1.90;;
53751;SDS011;41095;53.090;6.692;2023-08-06T11:10:28;2.20;;;1.73;;
53751;SDS011;41095;53.090;6.692;2023-08-06T11:12:54;1.80;;;1.70;;
53751;SDS011;41095;53.090;6.692;2023-08-06T11:15:20;1.92;;;1.83;;
53751;SDS011;41095;53.090;6.692;2023-08-06T11:17:46;2.35;;;1.63;;
53751;SDS011;41095;53.090;6.692;2023-08-06T11:20:12;3.15;;;2.17;;
53751;SDS011;41095;53.090;6.692;2023-08-06T11:22:38;2.13;;;1.95;;
53751;SDS011;41095;53.090;6.692;2023-08-06T11:25:07;1.70;;;1.60;;
53751;SDS011;41095;53.090;6.692;2023-08-06T11:27:33;2.67;;;1.90;;
53751;SDS011;41095;53.090;6.692;2023-08-06T11:29:59;2.17;;;2.03;;
53751;SDS011;41095;53.090;6.692;2023-08-06T11:32:25;3.90;;;1.98;;
53751;SDS011;41095;53.090;6.692;2023-08-06T11:34:53;3.40;;;1.75;;
53751;SDS011;41095;53.090;6.692;2023-08-06T11:37:23;2.60;;;1.98;;
53751;SDS011;41095;53.090;6.692;2023-08-06T11:39:51;3.42;;;1.85;;
53751;SDS011;41095;53.090;6.692;2023-08-06T11:42:18;2.03;;;1.80;;
53751;SDS011;41095;53.090;6.692;2023-08-06T11:44:43;2.15;;;1.95;;
53751;SDS011;41095;53.090;6.692;2023-08-06T11:47:13;2.53;;;1.75;;
53751;SDS011;41095;53.090;6.692;2023-08-06T11:49:45;1.67;;;1.58;;
53751;SDS011;41095;53.090;6.692;2023-08-06T11:52:25;2.67;;;1.75;;
53751;SDS011;41095;53.090;6.692;2023-08-06T11:57:29;2.17;;;1.80;;
53751;SDS011;41095;53.090;6.692;2023-08-06T12:00:09;1.83;;;1.73;;
53751;SDS011;41095;53.090;6.692;2023-08-06T12:02:38;3.35;;;2.00;;
53751;SDS011;41095;53.090;6.692;2023-08-06T12:07:42;2.10;;;1.55;;
53751;SDS011;41095;53.090;6.692;2023-08-06T12:10:10;1.80;;;1.70;;
53751;SDS011;41095;53.090;6.692;2023-08-06T12:12:36;2.08;;;1.70;;
53751;SDS011;41095;53.090;6.692;2023-08-06T12:15:02;3.00;;;1.77;;
53751;SDS011;41095;53.090;6.692;2023-08-06T12:17:29;2.20;;;2.00;;
53751;SDS011;41095;53.090;6.692;2023-08-06T12:19:54;2.00;;;1.73;;
53751;SDS011;41095;53.090;6.692;2023-08-06T12:22:20;1.80;;;1.70;;
53751;SDS011;41095;53.090;6.692;2023-08-06T12:24:46;1.65;;;1.55;;
53751;SDS011;41095;53.090;6.692;2023-08-06T12:27:13;1.80;;;1.70;;
53751;SDS011;41095;53.090;6.692;2023-08-06T12:29:42;2.03;;;1.70;;
53751;SDS011;41095;53.090;6.692;2023-08-06T12:32:10;3.22;;;2.22;;
53751;SDS011;41095;53.090;6.692;2023-08-06T12:34:37;2.03;;;1.85;;
53751;SDS011;41095;53.090;6.692;2023-08-06T12:37:04;1.98;;;1.77;;
53751;SDS011;41095;53.090;6.692;2023-08-06T12:39:30;6.75;;;2.20;;
53751;SDS011;41095;53.090;6.692;2023-08-06T12:41:57;4.03;;;2.30;;
53751;SDS011;41095;53.090;6.692;2023-08-06T12:44:24;1.88;;;1.70;;
53751;SDS011;41095;53.090;6.692;2023-08-06T12:46:50;2.22;;;1.92;;
53751;SDS011;41095;53.090;6.692;2023-08-06T12:49:17;3.05;;;2.17;;
53751;SDS011;41095;53.090;6.692;2023-08-06T12:51:43;2.15;;;1.95;;
53751;SDS011;41095;53.090;6.692;2023-08-06T12:54:08;3.45;;;2.00;;
53751;SDS011;41095;53.090;6.692;2023-08-06T12:56:34;3.28;;;2.10;;
53751;SDS011;41095;53.090;6.692;2023-08-06T12:59:00;2.17;;;1.98;;
53751;SDS011;41095;53.090;6.692;2023-08-06T13:01:26;2.08;;;1.98;;
53751;SDS011;41095;53.090;6.692;2023-08-06T13:03:52;2.33;;;1.80;;
53751;SDS011;41095;53.090;6.692;2023-08-06T13:06:17;2.70;;;1.98;;
53751;SDS011;41095;53.090;6.692;2023-08-06T13:08:43;3.05;;;2.28;;
53751;SDS011;41095;53.090;6.692;2023-08-06T13:11:09;1.70;;;1.60;;
53751;SDS011;41095;53.090;6.692;2023-08-06T13:13:35;2.22;;;2.03;;
53751;SDS011;41095;53.090;6.692;2023-08-06T13:16:01;2.72;;;2.00;;
53751;SDS011;41095;53.090;6.692;2023-08-06T13:18:27;3.58;;;2.10;;
53751;SDS011;41095;53.090;6.692;2023-08-06T13:20:54;2.47;;;1.92;;
53751;SDS011;41095;53.090;6.692;2023-08-06T13:23:20;1.98;;;1.73;;
53751;SDS011;41095;53.090;6.692;2023-08-06T13:25:46;3.20;;;2.13;;
53751;SDS011;41095;53.090;6.692;2023-08-06T13:28:11;2.15;;;1.92;;
53751;SDS011;41095;53.090;6.692;2023-08-06T13:30:39;2.20;;;1.80;;
53751;SDS011;41095;53.090;6.692;2023-08-06T13:33:07;2.00;;;1.70;;
53751;SDS011;41095;53.090;6.692;2023-08-06T13:35:33;2.08;;;1.88;;
53751;SDS011;41095;53.090;6.692;2023-08-06T13:37:59;1.67;;;1.52;;
53751;SDS011;41095;53.090;6.692;2023-08-06T13:40:27;2.25;;;1.88;;
53751;SDS011;41095;53.090;6.692;2023-08-06T13:42:55;2.08;;;1.65;;
53751;SDS011;41095;53.090;6.692;2023-08-06T13:45:21;2.15;;;1.63;;
53751;SDS011;41095;53.090;6.692;2023-08-06T13:47:47;2.88;;;1.90;;
53751;SDS011;41095;53.090;6.692;2023-08-06T13:50:12;5.28;;;2.47;;
53751;SDS011;41095;53.090;6.692;2023-08-06T13:52:38;2.30;;;1.63;;
53751;SDS011;41095;53.090;6.692;2023-08-06T13:55:04;2.22;;;1.83;;
53751;SDS011;41095;53.090;6.692;2023-08-06T13:57:31;1.70;;;1.60;;
53751;SDS011;41095;53.090;6.692;2023-08-06T13:59:57;2.50;;;1.83;;
53751;SDS011;41095;53.090;6.692;2023-08-06T14:02:22;2.00;;;1.90;;
53751;SDS011;41095;53.090;6.692;2023-08-06T14:04:48;2.83;;;2.00;;
53751;SDS011;41095;53.090;6.692;2023-08-06T14:07:14;2.67;;;1.92;;
53751;SDS011;41095;53.090;6.692;2023-08-06T14:09:39;1.95;;;1.60;;
53751;SDS011;41095;53.090;6.692;2023-08-06T14:12:07;2.08;;;1.75;;
53751;SDS011;41095;53.090;6.692;2023-08-06T14:14:33;1.80;;;1.70;;
53751;SDS011;41095;53.090;6.692;2023-08-06T14:16:59;1.98;;;1.77;;
53751;SDS011;41095;53.090;6.692;2023-08-06T14:19:24;2.05;;;1.70;;
53751;SDS011;41095;53.090;6.692;2023-08-06T14:21:50;4.32;;;2.28;;
53751;SDS011;41095;53.090;6.692;2023-08-06T14:24:16;1.85;;;1.67;;
53751;SDS011;41095;53.090;6.692;2023-08-06T14:26:41;2.30;;;1.90;;
53751;SDS011;41095;53.090;6.692;2023-08-06T14:29:07;4.10;;;1.80;;
53751;SDS011;41095;53.090;6.692;2023-08-06T14:31:33;2.08;;;1.80;;
53751;SDS011;41095;53.090;6.692;2023-08-06T14:33:59;1.58;;;1.48;;
53751;SDS011;41095;53.090;6.692;2023-08-06T14:36:25;2.75;;;1.98;;
53751;SDS011;41095;53.090;6.692;2023-08-06T14:38:51;1.80;;;1.70;;
53751;SDS011;41095;53.090;6.692;2023-08-06T14:41:17;2.25;;;2.05;;
53751;SDS011;41095;53.090;6.692;2023-08-06T14:43:42;4.22;;;1.98;;
53751;SDS011;41095;53.090;6.692;2023-08-06T14:46:08;4.82;;;2.10;;
53751;SDS011;41095;53.090;6.692;2023-08-06T14:48:34;1.70;;;1.60;;